الصفحة الرئيسية
METAR-TAF:

METAR-TAF

مطار :

فيو فورت, سانت لوسيا

دائرة عرض: 13-45N, خط طول: 060-57W, ارتفاع: 3 متر

مراقبة الطقس الحالي

تاريخ ووقت الإصدار 1ساعة و 9 دقيقة قبل الساعة 06:00UTC
ريح 20 عقدة من الشرق
درجة الحرارة 29°درجة مئوية
الرطوبة 74%
ضغط 1014 hPa
الرؤية 10 كم أو أكثر
غيوم متفرقة على ارتفاع 2500 قدم

METAR: TLPL 180600Z 10020KT 9999 SCT025 29/24 Q1014 NOSIG

زمن: 03:09 (07:09 UTC)

توقعات

تاريخ ووقت الإصدار 2ساعات و 9 دقيقة قبل الساعة 05:00UTC
التوقعات صالحة من18 الساعة 06 UTC إلى 19 الساعة 06 UTC
ريح 18 عقدة من الشرق
الرؤية 10 كم أو أكثر
غيوم متفرقة على ارتفاع 2500 قدم

TAF: TLPL 180500Z 1806/1906 10018KT 9999 SCT025

أرصاد الطقس والتوقعات من أكثر من 4000 مطار (تقارير الطقس للمطار METAR والتنبؤ بالطقس بالمطارTAF).

المحطات المتاحة هي النقط الصفراء والحمراء على الخريطة.

حرك المؤشر فوق النقطة لمعرفة اسم المحطة.

ثم انقر لمعرفة أرصاد وتوقعات الطقس.

لتغيير الخارطة: اضغط على الأزرار الخضراء مع رمز الصليب الأسود للتكبير. على الزر الأخضر مع شرطة للتصغير، أو على الأسهم الخضراء للخرائط المجاورة.


METAR-TAF: